Terminal Aerodrome Forecast
Issued by NWS

Home | Current Version | Previous Version | Text Only | Print | Product List | Glossary On
Versions: 1 2 3 4 5 6 7 8 9 10 11 12 13
000
FTUS43 KMPX 301100
TAFRWF
TAF
KRWF 301125Z 3012/3112 15003KT P6SM SCT060 OVC090
     FM301600 33007KT P6SM SCT025
     FM301900 34012G20KT P6SM BKN025
     FM302200 34015G22KT P6SM SCT025 BKN035
     FM310500 34012KT P6SM SKC=

USA.gov is the U.S. government's official web portal to all federal, state and local government web resources and services.